Time;durP1;ratioP1;P1;durP2;ratioP2;P2;SDS_P1;SDS_P2;PMS_P1;PMS_P2;Temp;Humidity;BMP_temperature;BMP_pressure;BME280_temperature;BME280_humidity;BME280_pressure;Samples;Min_cycle;Max_cycle;Signal;HPM_P1;HPM_P2
2023/06/16 00:01:04;;;;;;;6.78;4.88;;;12.80;87.10;;;;;;4993119;28;20223;-77
2023/06/16 00:03:33;;;;;;;6.82;4.70;;;12.70;87.80;;;;;;4994203;28;20543;-77
2023/06/16 00:06:03;;;;;;;5.18;4.68;;;12.50;89.00;;;;;;4992976;28;20277;-77
2023/06/16 00:08:33;;;;;;;6.15;4.80;;;12.40;89.50;;;;;;4993260;28;20204;-77
2023/06/16 00:10:58;;;;;;;5.80;4.90;;;12.50;89.40;;;;;;4993250;28;20202;-77
2023/06/16 00:13:24;;;;;;;4.80;4.30;;;12.50;89.50;;;;;;4992952;28;20191;-77
2023/06/16 00:15:49;;;;;;;5.43;4.93;;;12.50;89.60;;;;;;4992739;28;20561;-77
2023/06/16 00:18:16;;;;;;;5.00;4.45;;;12.50;89.80;;;;;;4994341;28;20172;-77
2023/06/16 00:20:42;;;;;;;5.13;4.63;;;12.40;90.00;;;;;;4994029;28;20219;-77
2023/06/16 00:23:09;;;;;;;5.35;4.85;;;12.40;90.20;;;;;;4993150;28;20603;-77
2023/06/16 00:25:35;;;;;;;6.20;4.68;;;12.40;90.20;;;;;;4993118;28;20566;-77
2023/06/16 00:28:00;;;;;;;5.95;4.55;;;12.30;90.40;;;;;;4992688;28;20180;-77
2023/06/16 00:30:26;;;;;;;5.40;4.45;;;12.30;90.40;;;;;;4992734;28;20247;-77
2023/06/16 00:32:51;;;;;;;5.88;4.38;;;12.40;90.20;;;;;;4992945;28;20207;-77
2023/06/16 00:35:17;;;;;;;4.72;4.00;;;12.40;90.10;;;;;;4993972;28;20207;-77
2023/06/16 00:37:42;;;;;;;5.10;4.60;;;12.40;90.10;;;;;;4992635;28;20246;-77
2023/06/16 00:40:09;;;;;;;6.78;4.82;;;12.30;90.60;;;;;;4993631;28;20270;-77
2023/06/16 00:43:10;;;;;;;5.35;4.53;;;12.40;90.60;;;;;;4995265;28;20179;-77
2023/06/16 00:45:35;;;;;;;8.45;4.63;;;12.40;90.50;;;;;;4996523;28;20172;-77
2023/06/16 00:48:01;;;;;;;6.45;4.45;;;12.40;90.50;;;;;;4996542;28;20211;-77
2023/06/16 00:50:27;;;;;;;5.00;4.50;;;12.50;90.60;;;;;;5012806;28;20188;-77
2023/06/16 00:52:53;;;;;;;5.70;4.93;;;12.50;90.40;;;;;;4997574;28;20234;-77
2023/06/16 00:55:21;;;;;;;6.45;4.50;;;12.50;90.40;;;;;;4996525;28;20571;-77
2023/06/16 00:57:50;;;;;;;6.40;4.57;;;12.40;90.50;;;;;;4996342;28;20200;-77
2023/06/16 01:15:51;;;;;;;5.05;4.60;;;12.60;90.50;;;;;;5974891;23;20388;-76
2023/06/16 01:18:22;;;;;;;5.15;4.60;;;12.70;90.30;;;;;;4995722;28;20188;-76
2023/06/16 01:20:53;;;;;;;6.07;4.13;;;12.50;90.60;;;;;;4996711;28;20164;-75
2023/06/16 01:23:40;;;;;;;4.55;4.15;;;12.70;90.70;;;;;;4996339;28;20179;-76
2023/06/16 01:26:09;;;;;;;6.55;4.93;;;12.80;90.60;;;;;;4979702;28;20204;-76
2023/06/16 01:28:40;;;;;;;5.45;4.40;;;12.70;91.00;;;;;;4995719;28;20185;-76
2023/06/16 01:31:08;;;;;;;5.28;4.80;;;12.80;90.90;;;;;;4996950;28;20175;-76
2023/06/16 01:33:36;;;;;;;5.13;4.72;;;12.90;90.80;;;;;;4996591;28;20270;-76
2023/06/16 01:36:04;;;;;;;4.50;4.10;;;12.80;90.90;;;;;;4996901;28;20291;-76
2023/06/16 01:38:30;;;;;;;6.68;5.03;;;12.80;91.20;;;;;;4996696;28;20172;-76
2023/06/16 01:40:57;;;;;;;6.03;4.82;;;12.80;91.00;;;;;;4995778;28;20180;-76
2023/06/16 01:43:23;;;;;;;4.65;4.25;;;12.90;90.90;;;;;;4995478;28;20549;-76
2023/06/16 01:45:50;;;;;;;6.68;4.57;;;13.00;90.80;;;;;;4995720;28;20196;-76
2023/06/16 01:48:16;;;;;;;6.90;4.60;;;13.00;90.60;;;;;;4995370;28;20264;-76
2023/06/16 01:50:42;;;;;;;8.75;4.78;;;13.00;90.80;;;;;;4995589;28;20271;-76
2023/06/16 01:53:08;;;;;;;5.28;4.78;;;13.00;91.00;;;;;;4996423;28;20655;-76
2023/06/16 01:55:33;;;;;;;5.10;4.60;;;13.00;91.10;;;;;;4994499;28;20204;-76
2023/06/16 01:57:59;;;;;;;7.40;4.50;;;12.90;91.10;;;;;;4995116;28;20184;-76
2023/06/16 02:00:39;;;;;;;5.32;4.30;;;13.00;91.10;;;;;;4995997;28;20177;-76
2023/06/16 02:03:11;;;;;;;5.38;4.88;;;12.90;91.00;;;;;;4995149;28;20175;-76
2023/06/16 02:05:41;;;;;;;5.15;4.63;;;12.80;91.90;;;;;;4996270;28;20515;-76
2023/06/16 02:08:08;;;;;;;5.75;4.53;;;12.80;92.10;;;;;;4995041;28;20662;-76
2023/06/16 02:10:34;;;;;;;5.43;4.38;;;12.80;92.10;;;;;;4996140;28;20570;-76
2023/06/16 02:13:00;;;;;;;5.30;4.80;;;12.90;92.00;;;;;;4995725;28;20180;-76
2023/06/16 02:15:27;;;;;;;4.85;4.45;;;12.90;92.00;;;;;;4994773;28;20211;-75
2023/06/16 02:17:57;;;;;;;6.10;4.40;;;13.00;92.10;;;;;;4995013;28;20195;-75
2023/06/16 02:20:24;;;;;;;5.05;4.35;;;13.00;92.70;;;;;;4995649;28;20172;-75
2023/06/16 02:22:50;;;;;;;4.78;4.38;;;13.10;92.30;;;;;;4994740;28;20199;-75
2023/06/16 02:25:15;;;;;;;5.75;4.70;;;13.10;92.30;;;;;;4994668;28;20338;-75
2023/06/16 02:27:41;;;;;;;4.82;4.30;;;13.10;92.30;;;;;;4994583;28;20200;-76
2023/06/16 02:30:08;;;;;;;6.82;4.80;;;13.10;92.40;;;;;;4995424;28;20184;-76
2023/06/16 02:32:34;;;;;;;6.05;4.82;;;13.20;92.20;;;;;;4995355;28;20673;-75
2023/06/16 02:35:00;;;;;;;5.03;4.47;;;13.00;92.40;;;;;;4994355;28;20191;-75
2023/06/16 02:37:27;;;;;;;4.93;4.40;;;13.10;92.20;;;;;;4995583;28;20275;-75
2023/06/16 02:39:53;;;;;;;4.78;4.38;;;13.00;92.30;;;;;;4995701;28;20220;-75
2023/06/16 02:42:18;;;;;;;5.38;4.70;;;13.00;92.80;;;;;;4994633;28;20650;-75
2023/06/16 02:44:44;;;;;;;5.10;4.55;;;13.10;93.00;;;;;;4995750;28;20183;-75
2023/06/16 02:47:09;;;;;;;5.95;4.50;;;13.00;93.10;;;;;;4994258;28;20625;-75
2023/06/16 02:49:35;;;;;;;5.25;4.50;;;13.10;93.00;;;;;;4995024;28;20226;-75
2023/06/16 02:52:01;;;;;;;5.63;5.13;;;13.10;92.80;;;;;;4994423;28;20183;-75
2023/06/16 02:54:26;;;;;;;5.85;4.47;;;13.10;93.30;;;;;;4994656;28;20188;-75
2023/06/16 02:56:52;;;;;;;5.63;4.65;;;13.10;93.50;;;;;;4994271;28;20212;-75
2023/06/16 02:59:17;;;;;;;5.30;4.68;;;13.20;94.00;;;;;;4994857;28;20539;-75
2023/06/16 03:01:43;;;;;;;5.47;4.97;;;13.20;93.70;;;;;;4993972;28;20171;-75
2023/06/16 03:04:08;;;;;;;6.32;4.72;;;13.20;93.80;;;;;;4995007;28;20176;-75
2023/06/16 03:06:34;;;;;;;5.20;4.70;;;13.20;94.20;;;;;;4992999;28;20202;-75
2023/06/16 03:09:03;;;;;;;5.15;4.60;;;13.30;94.30;;;;;;4993974;28;20184;-75
2023/06/16 03:11:29;;;;;;;7.18;4.80;;;13.30;94.50;;;;;;4993835;28;20226;-75
2023/06/16 03:13:55;;;;;;;5.63;4.68;;;13.30;95.00;;;;;;4993772;28;20182;-75
2023/06/16 03:16:21;;;;;;;5.22;4.53;;;13.30;95.00;;;;;;4995070;28;20203;-76
2023/06/16 03:18:47;;;;;;;8.82;5.18;;;13.40;94.50;;;;;;4993780;28;20263;-75
2023/06/16 03:21:12;;;;;;;11.02;5.30;;;13.50;94.90;;;;;;4993667;28;20183;-75
2023/06/16 03:23:38;;;;;;;8.98;5.60;;;13.40;96.60;;;;;;4995172;28;20172;-75
2023/06/16 03:26:03;;;;;;;10.93;5.88;;;13.50;98.80;;;;;;4993587;28;20762;-76
2023/06/16 03:28:29;;;;;;;9.32;5.50;;;13.50;99.80;;;;;;4994209;28;20226;-75
2023/06/16 03:30:55;;;;;;;9.50;5.38;;;13.40;99.90;;;;;;4993490;28;20180;-75
2023/06/16 03:33:20;;;;;;;16.15;6.47;;;13.30;99.90;;;;;;4993379;28;20188;-75
2023/06/16 03:35:46;;;;;;;11.73;6.30;;;13.20;99.90;;;;;;4994142;28;20204;-75
2023/06/16 03:38:12;;;;;;;7.30;5.68;;;13.20;99.90;;;;;;4993383;28;20176;-75
2023/06/16 03:40:41;;;;;;;9.13;6.00;;;13.20;99.90;;;;;;4993320;28;20673;-75
2023/06/16 03:43:06;;;;;;;7.05;5.65;;;13.20;99.90;;;;;;4993349;28;20227;-75
2023/06/16 03:45:32;;;;;;;11.00;6.03;;;13.20;99.90;;;;;;4993999;28;20632;-76
2023/06/16 03:47:57;;;;;;;11.15;5.97;;;13.10;99.90;;;;;;4993164;28;20187;-75
2023/06/16 03:50:23;;;;;;;7.82;5.55;;;13.10;99.90;;;;;;4993170;28;20187;-75
2023/06/16 03:52:48;;;;;;;6.40;5.80;;;13.10;99.90;;;;;;4993509;28;20819;-75
2023/06/16 03:55:14;;;;;;;7.60;5.50;;;13.30;99.90;;;;;;4994732;28;20666;-76
2023/06/16 03:57:40;;;;;;;7.82;5.53;;;13.30;99.90;;;;;;4992972;28;20192;-75
2023/06/16 04:00:09;;;;;;;6.40;4.93;;;12.90;99.90;;;;;;4993409;28;20266;-75
2023/06/16 04:02:36;;;;;;;8.70;5.43;;;13.10;99.90;;;;;;4994195;28;20173;-75
2023/06/16 04:05:02;;;;;;;8.13;6.22;;;13.10;99.90;;;;;;4993027;28;20642;-75
2023/06/16 04:07:29;;;;;;;10.55;5.53;;;13.20;99.90;;;;;;5009607;28;20239;-75
2023/06/16 04:09:55;;;;;;;8.95;5.68;;;13.40;99.90;;;;;;4993284;28;20176;-75
2023/06/16 04:12:20;;;;;;;7.13;5.60;;;13.30;99.90;;;;;;4994167;28;20164;-75
2023/06/16 04:14:46;;;;;;;10.43;6.07;;;13.40;99.90;;;;;;4992822;28;20183;-76
2023/06/16 04:17:11;;;;;;;7.07;6.00;;;13.30;99.90;;;;;;4992726;28;20235;-76
2023/06/16 04:19:37;;;;;;;7.45;5.35;;;13.40;99.90;;;;;;4994090;28;20552;-75
2023/06/16 04:22:03;;;;;;;7.10;6.13;;;13.50;99.90;;;;;;4993089;28;20172;-75
2023/06/16 04:24:28;;;;;;;9.18;6.07;;;13.70;99.90;;;;;;4992717;28;20172;-76
2023/06/16 04:26:58;;;;;;;11.70;5.88;;;13.90;99.90;;;;;;4992724;28;20263;-75
2023/06/16 04:29:25;;;;;;;6.53;5.53;;;14.10;99.90;;;;;;4992771;28;20190;-75
2023/06/16 04:31:51;;;;;;;7.20;6.07;;;14.20;99.90;;;;;;4992720;28;20180;-75
2023/06/16 04:34:18;;;;;;;10.85;6.05;;;14.30;99.90;;;;;;4992659;28;20187;-75
2023/06/16 04:36:44;;;;;;;6.53;5.93;;;14.30;99.90;;;;;;4992865;28;20216;-75
2023/06/16 04:39:14;;;;;;;8.73;5.90;;;14.30;99.90;;;;;;4992727;28;20239;-75
2023/06/16 04:41:42;;;;;;;6.60;5.75;;;14.30;99.90;;;;;;4993904;28;20172;-75
2023/06/16 04:44:08;;;;;;;6.72;6.05;;;14.30;99.90;;;;;;4994176;28;20169;-76
2023/06/16 04:46:34;;;;;;;9.98;5.82;;;14.30;99.90;;;;;;4992841;28;20204;-75
2023/06/16 04:48:59;;;;;;;10.40;5.75;;;14.30;99.90;;;;;;5009170;28;20195;-75
2023/06/16 04:51:26;;;;;;;8.50;6.18;;;14.40;99.90;;;;;;5008903;28;20204;-75
2023/06/16 04:53:52;;;;;;;8.75;5.63;;;14.60;99.90;;;;;;4992552;28;20188;-75
2023/06/16 04:56:17;;;;;;;8.40;6.03;;;14.70;99.90;;;;;;5008987;28;20223;-75
2023/06/16 04:58:43;;;;;;;6.30;5.68;;;14.70;99.90;;;;;;4992485;28;20180;-75
2023/06/16 05:01:08;;;;;;;6.32;5.53;;;14.70;99.90;;;;;;4993106;28;20211;-74
2023/06/16 05:03:34;;;;;;;6.82;6.22;;;14.70;99.90;;;;;;4992525;28;20176;-75
2023/06/16 05:06:00;;;;;;;6.85;6.25;;;14.60;99.90;;;;;;5009413;28;20200;-75
2023/06/16 05:08:27;;;;;;;14.23;6.57;;;14.60;99.90;;;;;;4992419;28;20549;-75
2023/06/16 05:10:52;;;;;;;13.57;5.82;;;14.70;99.90;;;;;;4992370;28;20223;-74
2023/06/16 05:13:18;;;;;;;7.00;6.13;;;14.80;99.90;;;;;;4993502;28;20204;-74
2023/06/16 05:15:43;;;;;;;6.38;5.68;;;15.00;99.90;;;;;;4992874;28;20254;-75
2023/06/16 05:18:09;;;;;;;6.88;5.57;;;15.10;99.90;;;;;;4992967;28;20195;-75
2023/06/16 05:20:34;;;;;;;6.68;5.60;;;15.30;99.90;;;;;;4993415;28;20176;-75
2023/06/16 05:23:02;;;;;;;7.03;5.78;;;15.40;99.90;;;;;;4992563;28;20188;-75
2023/06/16 05:25:28;;;;;;;10.05;6.15;;;15.50;99.90;;;;;;4992251;28;20187;-75
2023/06/16 05:27:53;;;;;;;6.88;6.07;;;15.50;99.90;;;;;;4992813;28;20181;-75
2023/06/16 05:30:19;;;;;;;7.28;6.03;;;15.60;99.90;;;;;;4994909;28;20195;-75
2023/06/16 05:32:45;;;;;;;7.55;5.80;;;15.60;99.90;;;;;;4995743;28;20180;-75
2023/06/16 05:35:10;;;;;;;7.97;5.82;;;15.70;99.90;;;;;;4995913;28;20266;-75
2023/06/16 05:37:36;;;;;;;13.20;5.70;;;16.00;99.90;;;;;;4995838;28;20290;-75
2023/06/16 05:40:01;;;;;;;8.55;5.43;;;16.10;99.90;;;;;;4996184;28;20268;-75
2023/06/16 05:42:27;;;;;;;5.95;5.35;;;16.30;99.90;;;;;;4996777;28;20196;-75
2023/06/16 05:44:52;;;;;;;6.03;5.05;;;16.50;99.90;;;;;;5012969;28;20193;-74
2023/06/16 05:47:19;;;;;;;8.00;5.25;;;16.60;99.90;;;;;;4995408;28;20204;-75
2023/06/16 05:49:45;;;;;;;8.82;5.22;;;16.70;99.90;;;;;;4996871;28;20168;-75
2023/06/16 05:52:10;;;;;;;8.40;5.40;;;16.90;99.90;;;;;;4995304;28;20195;-75
2023/06/16 05:54:40;;;;;;;6.45;5.10;;;17.00;99.90;;;;;;4995125;28;20177;-75
2023/06/16 05:57:06;;;;;;;6.57;5.57;;;17.10;99.90;;;;;;4996397;28;20207;-75
2023/06/16 05:59:31;;;;;;;5.75;5.20;;;17.30;99.90;;;;;;4995506;28;20180;-75
2023/06/16 06:01:57;;;;;;;5.90;5.07;;;17.30;99.90;;;;;;4995209;28;20227;-75
2023/06/16 06:04:31;;;;;;;5.93;5.03;;;17.50;99.90;;;;;;4995407;28;20173;-74
2023/06/16 06:06:57;;;;;;;8.55;5.07;;;17.70;99.90;;;;;;4995296;28;20227;-75
2023/06/16 06:09:23;;;;;;;5.68;5.18;;;17.90;99.90;;;;;;4995013;28;20211;-75
2023/06/16 06:11:49;;;;;;;6.65;4.80;;;18.30;99.90;;;;;;4995012;28;20563;-74
2023/06/16 06:14:15;;;;;;;7.38;5.18;;;18.60;99.80;;;;;;4996182;28;20175;-74
2023/06/16 06:16:40;;;;;;;7.15;5.40;;;19.00;98.90;;;;;;4994665;28;20216;-75
2023/06/16 06:19:47;;;;;;;5.38;4.85;;;19.70;97.50;;;;;;4995627;28;20187;-74
2023/06/16 06:22:13;;;;;;;6.28;4.60;;;20.90;94.10;;;;;;4995656;28;20169;-75
2023/06/16 06:24:39;;;;;;;8.20;5.00;;;21.80;90.80;;;;;;4994759;28;20183;-75
2023/06/16 06:27:05;;;;;;;6.15;4.60;;;22.60;86.10;;;;;;4994629;28;20259;-75
2023/06/16 06:29:30;;;;;;;5.70;4.38;;;23.10;80.90;;;;;;4994582;28;20192;-75
2023/06/16 06:31:56;;;;;;;5.85;4.75;;;23.70;77.80;;;;;;4995841;28;20546;-75
2023/06/16 06:34:22;;;;;;;5.35;4.82;;;24.10;75.50;;;;;;4994508;28;20192;-75
2023/06/16 06:36:48;;;;;;;6.07;4.50;;;24.10;72.50;;;;;;4995632;28;20212;-75
2023/06/16 06:39:13;;;;;;;5.30;4.55;;;24.30;71.40;;;;;;4994363;28;20183;-75
2023/06/16 06:41:40;;;;;;;5.65;4.65;;;24.20;71.20;;;;;;4995868;28;20218;-75
2023/06/16 06:44:06;;;;;;;6.85;4.15;;;24.50;70.10;;;;;;4994903;28;20264;-75
2023/06/16 06:46:31;;;;;;;5.72;4.53;;;24.50;69.20;;;;;;4994489;28;20232;-75
2023/06/16 06:48:57;;;;;;;7.25;4.60;;;24.40;69.40;;;;;;4994984;28;20617;-75
2023/06/16 06:51:23;;;;;;;7.00;4.35;;;24.20;69.30;;;;;;4994244;28;20172;-75
2023/06/16 06:53:51;;;;;;;4.45;3.95;;;24.30;69.00;;;;;;4994517;28;20188;-75
2023/06/16 06:56:17;;;;;;;5.63;4.30;;;24.20;69.50;;;;;;4995472;28;20292;-75
2023/06/16 06:58:42;;;;;;;6.32;4.32;;;23.80;69.20;;;;;;4995532;28;20251;-75
2023/06/16 07:01:08;;;;;;;6.63;4.43;;;23.50;69.90;;;;;;4994052;28;20215;-75
2023/06/16 07:03:33;;;;;;;4.72;4.20;;;23.00;69.80;;;;;;4993952;28;20177;-75
2023/06/16 07:05:59;;;;;;;4.97;4.50;;;22.50;72.30;;;;;;4993923;28;20266;-75
2023/06/16 07:08:25;;;;;;;7.40;4.32;;;22.00;74.40;;;;;;5010308;28;20635;-75
2023/06/16 07:10:51;;;;;;;7.50;4.90;;;21.70;74.90;;;;;;4993909;28;20176;-75
2023/06/16 07:13:16;;;;;;;6.22;4.40;;;21.40;75.50;;;;;;4994187;28;20184;-74
2023/06/16 07:15:42;;;;;;;6.68;4.55;;;21.10;76.60;;;;;;4993569;28;20211;-75
2023/06/16 07:18:08;;;;;;;5.38;4.68;;;20.90;78.00;;;;;;4993749;28;20183;-74
2023/06/16 07:20:33;;;;;;;7.47;4.00;;;21.10;78.30;;;;;;5011030;28;20223;-75
2023/06/16 07:22:59;;;;;;;7.15;3.92;;;21.10;75.60;;;;;;4993853;28;20206;-75
2023/06/16 07:25:24;;;;;;;5.80;4.22;;;21.20;77.10;;;;;;4993831;28;20180;-75
2023/06/16 07:27:50;;;;;;;7.38;4.75;;;21.20;76.40;;;;;;4995283;28;20541;-75
2023/06/16 07:30:15;;;;;;;6.03;4.10;;;21.10;76.40;;;;;;4993528;28;20184;-75
2023/06/16 07:32:41;;;;;;;7.68;3.88;;;21.20;77.10;;;;;;4994865;28;20189;-75
2023/06/16 07:35:08;;;;;;;5.60;4.35;;;21.10;76.00;;;;;;4993359;28;20184;-74
2023/06/16 07:37:34;;;;;;;6.30;3.85;;;21.10;74.20;;;;;;4993292;28;20224;-75
2023/06/16 07:39:59;;;;;;;5.30;4.07;;;21.30;74.30;;;;;;4994459;28;20270;-75
2023/06/16 07:42:25;;;;;;;7.72;3.90;;;21.30;73.60;;;;;;5009772;28;20176;-75
2023/06/16 07:44:52;;;;;;;6.55;3.72;;;21.40;72.90;;;;;;4993410;28;20183;-75
2023/06/16 07:47:17;;;;;;;4.40;4.00;;;21.50;72.00;;;;;;4994961;28;20212;-75
2023/06/16 07:49:43;;;;;;;5.10;4.28;;;21.50;73.10;;;;;;4993581;28;20517;-75
2023/06/16 07:52:11;;;;;;;4.85;4.00;;;21.70;73.30;;;;;;4993900;28;20204;-75
2023/06/16 07:54:37;;;;;;;8.77;4.05;;;21.90;72.20;;;;;;5009651;28;20184;-75
2023/06/16 07:57:02;;;;;;;8.32;3.80;;;22.00;70.80;;;;;;4994311;28;20748;-75
2023/06/16 07:59:28;;;;;;;4.20;3.35;;;22.30;70.00;;;;;;4993102;28;20176;-75
2023/06/16 08:01:53;;;;;;;4.07;3.65;;;22.50;69.50;;;;;;4993096;28;20183;-75
2023/06/16 08:04:19;;;;;;;7.45;3.40;;;22.50;66.90;;;;;;4995079;28;20173;-75
2023/06/16 08:06:45;;;;;;;4.85;3.92;;;22.40;63.90;;;;;;5009446;28;20196;-75
2023/06/16 08:09:11;;;;;;;10.15;3.65;;;22.30;65.70;;;;;;4994356;28;20176;-75
2023/06/16 08:11:36;;;;;;;6.15;3.67;;;22.30;66.60;;;;;;4991148;28;20180;-75
2023/06/16 08:14:03;;;;;;;4.38;3.65;;;22.20;64.70;;;;;;4992924;28;20172;-74
2023/06/16 08:16:28;;;;;;;5.00;3.58;;;22.20;64.00;;;;;;4992511;28;20235;-75
2023/06/16 08:18:57;;;;;;;6.63;3.80;;;22.30;64.70;;;;;;4992816;28;20226;-75
2023/06/16 08:21:23;;;;;;;4.80;3.40;;;22.30;62.90;;;;;;4993981;28;20165;-75
2023/06/16 08:23:50;;;;;;;3.78;3.33;;;22.30;62.40;;;;;;4992706;28;20179;-75
2023/06/16 08:26:16;;;;;;;5.63;3.60;;;22.20;62.70;;;;;;4992758;28;20200;-75
2023/06/16 08:28:42;;;;;;;5.90;3.78;;;22.20;63.70;;;;;;4993075;28;20185;-75
2023/06/16 08:31:08;;;;;;;7.50;3.40;;;22.20;62.80;;;;;;4992671;28;20180;-75
2023/06/16 08:33:34;;;;;;;4.78;3.40;;;22.30;62.80;;;;;;4992667;28;20176;-75
2023/06/16 08:36:00;;;;;;;3.78;3.38;;;22.30;61.80;;;;;;4992551;28;20223;-75
2023/06/16 08:38:26;;;;;;;10.00;3.80;;;22.30;63.40;;;;;;4992551;28;20176;-75
2023/06/16 08:40:51;;;;;;;8.35;3.78;;;22.40;62.80;;;;;;4992584;28;20200;-75
2023/06/16 08:43:17;;;;;;;6.63;3.60;;;22.60;62.90;;;;;;4992942;28;20226;-75
2023/06/16 08:45:45;;;;;;;4.20;3.80;;;22.80;61.70;;;;;;4992540;28;20299;-75
2023/06/16 08:48:13;;;;;;;5.32;3.83;;;22.90;61.80;;;;;;4992950;28;20255;-75
2023/06/16 08:50:39;;;;;;;5.65;3.58;;;23.00;60.10;;;;;;4992673;28;20188;-75
2023/06/16 08:53:08;;;;;;;8.25;3.72;;;23.00;60.80;;;;;;4993326;28;20181;-75
2023/06/16 08:55:35;;;;;;;9.43;3.95;;;23.10;60.20;;;;;;4993928;28;20203;-75
2023/06/16 08:58:01;;;;;;;5.55;3.50;;;23.10;60.80;;;;;;4994194;28;20263;-75
2023/06/16 09:00:27;;;;;;;3.97;3.58;;;23.10;59.90;;;;;;4992516;28;20661;-75
2023/06/16 09:02:56;;;;;;;4.10;3.55;;;23.10;60.20;;;;;;4993848;28;20175;-75
2023/06/16 09:05:23;;;;;;;7.10;3.60;;;23.00;59.60;;;;;;4995736;28;20196;-76
2023/06/16 09:07:49;;;;;;;3.97;3.50;;;23.00;58.80;;;;;;4996420;28;20180;-75
2023/06/16 09:10:16;;;;;;;3.65;3.35;;;23.20;59.30;;;;;;4997561;28;20658;-75
2023/06/16 09:12:42;;;;;;;4.55;3.47;;;23.30;59.30;;;;;;4996110;28;20711;-75
2023/06/16 09:15:10;;;;;;;5.25;3.58;;;23.30;57.80;;;;;;4996034;28;20275;-75
2023/06/16 09:17:37;;;;;;;6.72;3.50;;;23.30;58.30;;;;;;4996973;28;20212;-75
2023/06/16 09:20:06;;;;;;;6.15;3.60;;;23.00;58.20;;;;;;4994641;28;20279;-75
2023/06/16 09:22:32;;;;;;;6.00;3.30;;;23.20;58.00;;;;;;5014171;28;20210;-75
2023/06/16 09:25:06;;;;;;;3.95;3.60;;;23.30;58.40;;;;;;5016982;28;20155;-75
2023/06/16 09:27:43;;;;;;;4.07;3.50;;;23.40;57.70;;;;;;5015377;28;20195;-75
2023/06/16 09:30:14;;;;;;;5.88;3.50;;;23.30;57.40;;;;;;5015305;28;20230;-75
2023/06/16 09:32:41;;;;;;;4.15;3.22;;;23.40;57.90;;;;;;5015365;28;20179;-75
2023/06/16 09:35:21;;;;;;;4.68;3.38;;;23.30;58.30;;;;;;5016535;28;20229;-76
2023/06/16 09:37:49;;;;;;;3.78;3.30;;;23.30;58.50;;;;;;4994128;28;20548;-75
2023/06/16 09:40:16;;;;;;;4.00;3.58;;;23.60;57.60;;;;;;4995519;28;20604;-75
2023/06/16 09:43:21;;;;;;;5.90;3.75;;;23.90;57.90;;;;;;4995621;28;20199;-75
2023/06/16 09:45:57;;;;;;;6.78;3.60;;;24.20;55.50;;;;;;4995606;28;20291;-75
2023/06/16 09:48:26;;;;;;;4.47;3.33;;;24.40;55.40;;;;;;4995652;28;20285;-75
2023/06/16 09:50:54;;;;;;;6.90;3.50;;;24.40;55.60;;;;;;4996580;28;20168;-75
2023/06/16 09:53:22;;;;;;;4.53;3.63;;;24.50;55.20;;;;;;4995361;28;20188;-75
2023/06/16 09:55:49;;;;;;;5.38;3.88;;;24.80;55.00;;;;;;4994771;28;20286;-75
2023/06/16 09:58:15;;;;;;;3.85;3.40;;;25.30;54.90;;;;;;4995256;28;20180;-75
2023/06/16 10:00:41;;;;;;;5.22;3.60;;;25.50;52.50;;;;;;4995962;28;20176;-75
2023/06/16 10:03:12;;;;;;;5.38;3.40;;;25.20;53.20;;;;;;4995160;28;20642;-75
2023/06/16 10:05:40;;;;;;;10.55;3.92;;;25.00;54.10;;;;;;4995902;28;20187;-76
2023/06/16 10:08:07;;;;;;;5.25;3.53;;;24.70;53.60;;;;;;4995258;28;20216;-75
2023/06/16 10:10:35;;;;;;;7.80;3.30;;;24.90;53.70;;;;;;4994159;28;20192;-76
2023/06/16 10:13:06;;;;;;;5.07;3.50;;;24.70;53.40;;;;;;4993816;28;20198;-76
2023/06/16 10:15:38;;;;;;;5.35;3.50;;;24.60;53.70;;;;;;4992505;28;20214;-76
2023/06/16 10:18:07;;;;;;;5.28;3.28;;;24.40;54.50;;;;;;4994790;28;20321;-76
2023/06/16 10:20:37;;;;;;;5.55;3.70;;;24.70;54.70;;;;;;4995747;28;20267;-76
2023/06/16 10:23:06;;;;;;;6.22;3.58;;;24.80;53.80;;;;;;4995466;28;20184;-75
2023/06/16 10:25:33;;;;;;;4.78;3.50;;;24.70;54.20;;;;;;4994482;28;20199;-76
2023/06/16 10:28:07;;;;;;;6.32;3.25;;;25.00;54.50;;;;;;4993087;28;20191;-76
2023/06/16 10:30:34;;;;;;;7.72;3.55;;;25.30;54.70;;;;;;4994527;28;20168;-75
2023/06/16 10:33:14;;;;;;;9.18;3.28;;;25.40;52.40;;;;;;4994959;28;20180;-75
2023/06/16 10:39:07;;;;;;;4.05;3.47;;;25.40;52.30;;;;;;4995962;28;20247;-76
2023/06/16 10:41:33;;;;;;;4.18;3.53;;;25.40;53.80;;;;;;4994041;28;20667;-76
2023/06/16 10:44:32;;;;;;;5.28;3.33;;;25.40;53.10;;;;;;4994202;28;20271;-76
2023/06/16 10:47:10;;;;;;;4.20;3.63;;;25.50;53.70;;;;;;4972186;28;20212;-76
2023/06/16 10:49:50;;;;;;;3.90;3.58;;;25.50;53.00;;;;;;4980523;28;20255;-76
2023/06/16 10:52:28;;;;;;;6.22;3.80;;;25.50;52.20;;;;;;4988577;28;20562;-76
2023/06/16 10:54:57;;;;;;;3.75;3.40;;;25.60;53.80;;;;;;4994104;28;20169;-76
2023/06/16 10:57:25;;;;;;;4.00;3.35;;;25.90;53.00;;;;;;4991586;28;20220;-76
2023/06/16 10:59:55;;;;;;;8.80;3.60;;;26.00;51.90;;;;;;4982351;28;20189;-75
2023/06/16 11:02:26;;;;;;;3.97;3.40;;;26.20;52.60;;;;;;4974629;28;20180;-75
2023/06/16 11:05:09;;;;;;;3.80;3.40;;;26.30;51.60;;;;;;4976900;28;20187;-75
2023/06/16 11:07:39;;;;;;;7.72;3.00;;;26.00;51.10;;;;;;4974436;28;20204;-75
2023/06/16 11:10:10;;;;;;;5.43;3.65;;;25.90;51.60;;;;;;4977720;28;20192;-76
2023/06/16 11:12:37;;;;;;;3.55;3.20;;;25.90;51.50;;;;;;4987896;28;20664;-77
2023/06/16 11:15:04;;;;;;;6.25;3.38;;;25.90;51.50;;;;;;4982254;28;20199;-77
2023/06/16 11:17:31;;;;;;;3.95;3.50;;;26.10;51.20;;;;;;4991353;28;20362;-76
2023/06/16 11:19:58;;;;;;;4.90;3.60;;;26.20;49.50;;;;;;4979558;28;20300;-76
2023/06/16 11:22:31;;;;;;;4.90;3.42;;;26.40;49.90;;;;;;4990613;28;20185;-76
2023/06/16 11:24:57;;;;;;;6.30;3.45;;;26.20;50.30;;;;;;5008736;28;20188;-75
2023/06/16 11:27:25;;;;;;;5.25;3.75;;;26.30;51.10;;;;;;4984254;28;20248;-75
2023/06/16 11:29:56;;;;;;;4.82;3.50;;;26.30;51.40;;;;;;4992736;28;20192;-82
2023/06/16 11:32:27;;;;;;;5.90;3.63;;;26.50;51.50;;;;;;4982486;28;20184;-75
2023/06/16 11:34:56;;;;;;;7.10;3.50;;;26.40;50.50;;;;;;4990133;28;20235;-75
2023/06/16 11:37:38;;;;;;;4.32;3.40;;;26.50;51.30;;;;;;4989791;28;20654;-75
2023/06/16 11:40:05;;;;;;;4.35;3.35;;;26.50;50.20;;;;;;4991021;28;20181;-75
2023/06/16 11:42:32;;;;;;;8.73;3.60;;;26.40;51.00;;;;;;4975388;28;20215;-75
2023/06/16 11:44:58;;;;;;;8.18;3.47;;;26.60;51.20;;;;;;4990951;28;20181;-76
2023/06/16 11:47:24;;;;;;;6.55;3.30;;;26.50;50.60;;;;;;4988192;28;20299;-76
2023/06/16 11:49:51;;;;;;;4.00;3.35;;;26.30;51.40;;;;;;4984485;28;20185;-76
2023/06/16 11:52:17;;;;;;;4.10;3.30;;;26.20;51.60;;;;;;4988601;28;20189;-77
2023/06/16 11:54:43;;;;;;;5.95;3.42;;;26.30;51.70;;;;;;4976092;28;20199;-76
2023/06/16 11:57:09;;;;;;;4.53;3.30;;;26.60;51.70;;;;;;4980608;28;20587;-76
2023/06/16 11:59:40;;;;;;;7.07;3.40;;;26.90;51.10;;;;;;4987677;28;20282;-76
2023/06/16 12:02:08;;;;;;;7.55;3.65;;;27.40;50.80;;;;;;4983737;28;20203;-76
2023/06/16 12:04:34;;;;;;;6.05;3.60;;;27.60;49.00;;;;;;4987986;28;20176;-75
2023/06/16 12:07:01;;;;;;;10.07;3.78;;;27.60;48.80;;;;;;4990449;28;20214;-76
2023/06/16 12:09:37;;;;;;;4.63;3.40;;;27.20;48.30;;;;;;4992262;28;20655;-76
2023/06/16 12:12:07;;;;;;;4.05;3.40;;;26.50;49.00;;;;;;4988182;28;20215;-76
2023/06/16 12:14:36;;;;;;;4.95;3.25;;;26.00;50.40;;;;;;4987244;28;20718;-76
2023/06/16 12:17:03;;;;;;;4.65;3.45;;;26.10;51.50;;;;;;4973297;28;20224;-76
2023/06/16 12:19:29;;;;;;;7.65;3.42;;;25.90;50.90;;;;;;4973665;28;20180;-76
2023/06/16 12:22:02;;;;;;;4.55;3.72;;;26.00;50.60;;;;;;4986135;28;20180;-75
2023/06/16 12:24:27;;;;;;;6.30;3.30;;;26.20;51.00;;;;;;4993126;28;20177;-76
2023/06/16 12:26:57;;;;;;;3.55;3.25;;;26.50;50.70;;;;;;4992717;28;20576;-76
2023/06/16 12:29:26;;;;;;;5.28;3.20;;;26.50;50.50;;;;;;4989550;28;20180;-77
2023/06/16 12:32:00;;;;;;;3.60;3.30;;;26.70;50.30;;;;;;4992396;28;20195;-77
2023/06/16 12:34:35;;;;;;;3.85;3.55;;;26.50;50.00;;;;;;4992698;28;20186;-76
2023/06/16 12:37:12;;;;;;;7.65;3.50;;;26.80;50.50;;;;;;4992989;28;20215;-76
2023/06/16 12:39:38;;;;;;;6.05;3.40;;;27.10;49.80;;;;;;4995857;28;20168;-77
2023/06/16 12:42:07;;;;;;;4.15;3.40;;;27.10;49.30;;;;;;4996497;28;20176;-77
2023/06/16 12:44:47;;;;;;;5.68;3.33;;;26.80;49.70;;;;;;4996045;28;20282;-76
2023/06/16 12:47:18;;;;;;;4.45;3.20;;;26.60;48.90;;;;;;4997389;28;20201;-76
2023/06/16 12:49:44;;;;;;;7.88;3.50;;;26.90;49.30;;;;;;4996162;28;20176;-75
2023/06/16 12:52:12;;;;;;;5.07;3.60;;;27.20;48.50;;;;;;4996225;28;20199;-76
2023/06/16 12:54:38;;;;;;;7.38;3.67;;;27.50;48.30;;;;;;4997605;28;20648;-75
2023/06/16 12:57:03;;;;;;;6.25;3.63;;;26.90;47.80;;;;;;4995837;28;20246;-75
2023/06/16 13:02:57;;;;;;;4.15;3.47;;;27.00;49.10;;;;;;4994590;28;20174;-76
2023/06/16 13:05:23;;;;;;;4.70;3.45;;;27.00;48.00;;;;;;4992659;28;20181;-75
2023/06/16 13:07:48;;;;;;;5.05;3.50;;;26.70;47.90;;;;;;4984739;28;20681;-75
2023/06/16 13:10:15;;;;;;;6.07;3.38;;;26.70;49.80;;;;;;4996937;28;20193;-79